sensor_id;sensor_type;location;lat;lon;timestamp;P1;durP1;ratioP1;P2;durP2;ratioP2
18627;SDS011;9443;50.888;10.728;2022-11-18T00:03:59;0.30;;;0.30;;
18627;SDS011;9443;50.888;10.728;2022-11-18T00:13:59;0.30;;;0.30;;
18627;SDS011;9443;50.888;10.728;2022-11-18T00:24:18;0.30;;;0.30;;
18627;SDS011;9443;50.888;10.728;2022-11-18T00:34:19;0.27;;;0.27;;
18627;SDS011;9443;50.888;10.728;2022-11-18T00:44:19;0.30;;;0.30;;
18627;SDS011;9443;50.888;10.728;2022-11-18T00:54:20;0.20;;;0.20;;
18627;SDS011;9443;50.888;10.728;2022-11-18T01:04:20;0.30;;;0.30;;
18627;SDS011;9443;50.888;10.728;2022-11-18T01:14:22;0.20;;;0.20;;
18627;SDS011;9443;50.888;10.728;2022-11-18T01:24:23;0.20;;;0.20;;
18627;SDS011;9443;50.888;10.728;2022-11-18T01:34:26;0.33;;;0.33;;
18627;SDS011;9443;50.888;10.728;2022-11-18T01:54:54;0.30;;;0.30;;
18627;SDS011;9443;50.888;10.728;2022-11-18T02:04:56;0.20;;;0.20;;
18627;SDS011;9443;50.888;10.728;2022-11-18T02:14:57;0.30;;;0.30;;
18627;SDS011;9443;50.888;10.728;2022-11-18T02:25:03;0.30;;;0.30;;
18627;SDS011;9443;50.888;10.728;2022-11-18T02:35:18;0.30;;;0.30;;
18627;SDS011;9443;50.888;10.728;2022-11-18T02:45:26;0.23;;;0.23;;
18627;SDS011;9443;50.888;10.728;2022-11-18T02:55:27;0.30;;;0.30;;
18627;SDS011;9443;50.888;10.728;2022-11-18T03:05:45;0.30;;;0.30;;
18627;SDS011;9443;50.888;10.728;2022-11-18T03:15:54;0.20;;;0.20;;
18627;SDS011;9443;50.888;10.728;2022-11-18T03:26:24;0.30;;;0.30;;
18627;SDS011;9443;50.888;10.728;2022-11-18T03:36:29;0.30;;;0.30;;
18627;SDS011;9443;50.888;10.728;2022-11-18T03:46:38;0.30;;;0.30;;
18627;SDS011;9443;50.888;10.728;2022-11-18T03:56:48;0.30;;;0.30;;
18627;SDS011;9443;50.888;10.728;2022-11-18T04:07:03;0.30;;;0.30;;
18627;SDS011;9443;50.888;10.728;2022-11-18T04:17:10;0.20;;;0.20;;
18627;SDS011;9443;50.888;10.728;2022-11-18T04:27:15;0.30;;;0.30;;
18627;SDS011;9443;50.888;10.728;2022-11-18T04:37:15;0.30;;;0.30;;
18627;SDS011;9443;50.888;10.728;2022-11-18T04:47:15;0.50;;;0.50;;
18627;SDS011;9443;50.888;10.728;2022-11-18T04:57:16;0.30;;;0.30;;
18627;SDS011;9443;50.888;10.728;2022-11-18T05:07:16;0.30;;;0.30;;
18627;SDS011;9443;50.888;10.728;2022-11-18T05:17:17;0.40;;;0.40;;
18627;SDS011;9443;50.888;10.728;2022-11-18T05:27:17;0.30;;;0.30;;
18627;SDS011;9443;50.888;10.728;2022-11-18T05:37:17;0.30;;;0.30;;
18627;SDS011;9443;50.888;10.728;2022-11-18T05:47:18;0.43;;;0.43;;
18627;SDS011;9443;50.888;10.728;2022-11-18T05:57:18;0.20;;;0.20;;
18627;SDS011;9443;50.888;10.728;2022-11-18T06:07:20;143.13;;;17.27;;
18627;SDS011;9443;50.888;10.728;2022-11-18T06:17:24;141.87;;;16.63;;
18627;SDS011;9443;50.888;10.728;2022-11-18T06:27:28;140.53;;;16.93;;
18627;SDS011;9443;50.888;10.728;2022-11-18T06:37:29;110.10;;;13.83;;
18627;SDS011;9443;50.888;10.728;2022-11-18T06:47:29;154.17;;;15.37;;
18627;SDS011;9443;50.888;10.728;2022-11-18T06:57:29;204.03;;;19.43;;
18627;SDS011;9443;50.888;10.728;2022-11-18T07:07:30;185.83;;;19.20;;
18627;SDS011;9443;50.888;10.728;2022-11-18T07:17:30;176.80;;;19.60;;
18627;SDS011;9443;50.888;10.728;2022-11-18T07:27:30;184.90;;;19.47;;
18627;SDS011;9443;50.888;10.728;2022-11-18T07:37:31;128.43;;;18.03;;
18627;SDS011;9443;50.888;10.728;2022-11-18T07:47:32;109.07;;;18.07;;
18627;SDS011;9443;50.888;10.728;2022-11-18T07:57:33;128.80;;;18.30;;
18627;SDS011;9443;50.888;10.728;2022-11-18T08:07:33;112.23;;;20.30;;
18627;SDS011;9443;50.888;10.728;2022-11-18T08:17:33;92.53;;;17.00;;
18627;SDS011;9443;50.888;10.728;2022-11-18T08:27:34;157.00;;;18.00;;
18627;SDS011;9443;50.888;10.728;2022-11-18T08:37:34;106.90;;;16.40;;
18627;SDS011;9443;50.888;10.728;2022-11-18T08:47:35;68.70;;;12.77;;
18627;SDS011;9443;50.888;10.728;2022-11-18T08:57:35;29.13;;;9.13;;
18627;SDS011;9443;50.888;10.728;2022-11-18T09:07:36;25.13;;;9.77;;
18627;SDS011;9443;50.888;10.728;2022-11-18T09:17:36;41.43;;;15.87;;
18627;SDS011;9443;50.888;10.728;2022-11-18T09:27:36;53.77;;;31.40;;
18627;SDS011;9443;50.888;10.728;2022-11-18T09:37:37;36.17;;;14.97;;
18627;SDS011;9443;50.888;10.728;2022-11-18T09:47:37;83.50;;;29.93;;
18627;SDS011;9443;50.888;10.728;2022-11-18T09:57:38;33.00;;;12.27;;
18627;SDS011;9443;50.888;10.728;2022-11-18T10:17:57;42.73;;;12.03;;
18627;SDS011;9443;50.888;10.728;2022-11-18T10:38:19;129.07;;;16.60;;
18627;SDS011;9443;50.888;10.728;2022-11-18T10:48:20;45.73;;;13.33;;
18627;SDS011;9443;50.888;10.728;2022-11-18T10:58:20;26.37;;;10.40;;
18627;SDS011;9443;50.888;10.728;2022-11-18T11:08:21;40.40;;;13.20;;
18627;SDS011;9443;50.888;10.728;2022-11-18T11:18:23;48.70;;;16.40;;
18627;SDS011;9443;50.888;10.728;2022-11-18T11:28:44;41.60;;;14.13;;
18627;SDS011;9443;50.888;10.728;2022-11-18T11:39:06;31.60;;;12.37;;
18627;SDS011;9443;50.888;10.728;2022-11-18T11:49:15;31.50;;;13.43;;
18627;SDS011;9443;50.888;10.728;2022-11-18T12:09:20;44.63;;;14.20;;
18627;SDS011;9443;50.888;10.728;2022-11-18T12:19:35;55.00;;;14.10;;
18627;SDS011;9443;50.888;10.728;2022-11-18T12:59:58;168.07;;;23.53;;
18627;SDS011;9443;50.888;10.728;2022-11-18T13:10:24;158.20;;;22.17;;
18627;SDS011;9443;50.888;10.728;2022-11-18T13:20:27;44.10;;;12.93;;
18627;SDS011;9443;50.888;10.728;2022-11-18T13:30:34;47.03;;;11.53;;
18627;SDS011;9443;50.888;10.728;2022-11-18T13:40:38;30.97;;;10.90;;
18627;SDS011;9443;50.888;10.728;2022-11-18T13:51:02;143.03;;;44.70;;
18627;SDS011;9443;50.888;10.728;2022-11-18T14:01:04;51.37;;;20.60;;
18627;SDS011;9443;50.888;10.728;2022-11-18T14:11:10;35.17;;;15.27;;
18627;SDS011;9443;50.888;10.728;2022-11-18T14:21:11;23.67;;;11.60;;
18627;SDS011;9443;50.888;10.728;2022-11-18T14:41:13;0.80;;;0.73;;
18627;SDS011;9443;50.888;10.728;2022-11-18T14:51:15;0.30;;;0.30;;
18627;SDS011;9443;50.888;10.728;2022-11-18T15:01:16;0.20;;;0.20;;
18627;SDS011;9443;50.888;10.728;2022-11-18T15:11:16;0.30;;;0.30;;
18627;SDS011;9443;50.888;10.728;2022-11-18T15:21:18;0.60;;;0.60;;
18627;SDS011;9443;50.888;10.728;2022-11-18T15:31:20;0.50;;;0.50;;
18627;SDS011;9443;50.888;10.728;2022-11-18T15:41:22;0.63;;;0.63;;
18627;SDS011;9443;50.888;10.728;2022-11-18T15:51:25;0.30;;;0.30;;
18627;SDS011;9443;50.888;10.728;2022-11-18T16:01:31;0.30;;;0.30;;
18627;SDS011;9443;50.888;10.728;2022-11-18T16:11:33;0.40;;;0.40;;
18627;SDS011;9443;50.888;10.728;2022-11-18T16:21:53;0.30;;;0.30;;
18627;SDS011;9443;50.888;10.728;2022-11-18T16:31:55;0.30;;;0.30;;
18627;SDS011;9443;50.888;10.728;2022-11-18T16:41:56;0.40;;;0.40;;
18627;SDS011;9443;50.888;10.728;2022-11-18T16:51:58;0.30;;;0.30;;
18627;SDS011;9443;50.888;10.728;2022-11-18T17:01:58;0.30;;;0.30;;
18627;SDS011;9443;50.888;10.728;2022-11-18T17:11:59;0.30;;;0.30;;
18627;SDS011;9443;50.888;10.728;2022-11-18T17:22:00;0.97;;;0.97;;
18627;SDS011;9443;50.888;10.728;2022-11-18T17:32:00;0.30;;;0.30;;
18627;SDS011;9443;50.888;10.728;2022-11-18T17:42:00;0.30;;;0.30;;
18627;SDS011;9443;50.888;10.728;2022-11-18T17:52:13;0.27;;;0.27;;
18627;SDS011;9443;50.888;10.728;2022-11-18T18:02:13;0.40;;;0.40;;
18627;SDS011;9443;50.888;10.728;2022-11-18T18:12:13;0.30;;;0.30;;
18627;SDS011;9443;50.888;10.728;2022-11-18T18:22:32;0.63;;;0.63;;
18627;SDS011;9443;50.888;10.728;2022-11-18T18:32:33;0.20;;;0.20;;
18627;SDS011;9443;50.888;10.728;2022-11-18T18:42:33;1.50;;;0.80;;
18627;SDS011;9443;50.888;10.728;2022-11-18T18:52:34;0.73;;;0.73;;
18627;SDS011;9443;50.888;10.728;2022-11-18T19:02:34;0.67;;;0.67;;
18627;SDS011;9443;50.888;10.728;2022-11-18T19:12:34;0.70;;;0.70;;
18627;SDS011;9443;50.888;10.728;2022-11-18T19:22:50;0.80;;;0.80;;
18627;SDS011;9443;50.888;10.728;2022-11-18T19:32:51;1.13;;;1.13;;
18627;SDS011;9443;50.888;10.728;2022-11-18T19:42:53;0.40;;;0.40;;
18627;SDS011;9443;50.888;10.728;2022-11-18T19:52:53;0.30;;;0.30;;
18627;SDS011;9443;50.888;10.728;2022-11-18T20:02:54;0.60;;;0.60;;
18627;SDS011;9443;50.888;10.728;2022-11-18T20:12:54;0.40;;;0.40;;
18627;SDS011;9443;50.888;10.728;2022-11-18T20:22:55;0.30;;;0.30;;
18627;SDS011;9443;50.888;10.728;2022-11-18T20:32:55;0.43;;;0.43;;
18627;SDS011;9443;50.888;10.728;2022-11-18T20:42:58;0.77;;;0.77;;
18627;SDS011;9443;50.888;10.728;2022-11-18T20:53:10;2.73;;;2.53;;
18627;SDS011;9443;50.888;10.728;2022-11-18T21:03:11;0.30;;;0.30;;
18627;SDS011;9443;50.888;10.728;2022-11-18T21:13:11;0.37;;;0.37;;
18627;SDS011;9443;50.888;10.728;2022-11-18T21:23:30;0.30;;;0.30;;
18627;SDS011;9443;50.888;10.728;2022-11-18T21:33:31;0.30;;;0.30;;
18627;SDS011;9443;50.888;10.728;2022-11-18T21:43:31;0.30;;;0.30;;
18627;SDS011;9443;50.888;10.728;2022-11-18T21:53:32;0.30;;;0.30;;
18627;SDS011;9443;50.888;10.728;2022-11-18T22:03:36;0.30;;;0.30;;
18627;SDS011;9443;50.888;10.728;2022-11-18T22:13:38;0.27;;;0.27;;
18627;SDS011;9443;50.888;10.728;2022-11-18T22:23:38;0.27;;;0.27;;
18627;SDS011;9443;50.888;10.728;2022-11-18T22:33:39;0.30;;;0.30;;
18627;SDS011;9443;50.888;10.728;2022-11-18T22:43:40;2.50;;;2.30;;
18627;SDS011;9443;50.888;10.728;2022-11-18T22:53:40;0.30;;;0.30;;
18627;SDS011;9443;50.888;10.728;2022-11-18T23:03:41;0.43;;;0.43;;
18627;SDS011;9443;50.888;10.728;2022-11-18T23:13:41;0.47;;;0.47;;
18627;SDS011;9443;50.888;10.728;2022-11-18T23:24:02;0.40;;;0.40;;
18627;SDS011;9443;50.888;10.728;2022-11-18T23:34:03;0.70;;;0.70;;
18627;SDS011;9443;50.888;10.728;2022-11-18T23:44:04;0.77;;;0.77;;
18627;SDS011;9443;50.888;10.728;2022-11-18T23:54:04;0.57;;;0.57;;
